Time;durP1;ratioP1;P1;durP2;ratioP2;P2;SDS_P1;SDS_P2;PMS_P1;PMS_P2;Temp;Humidity;BMP_temperature;BMP_pressure;BME280_temperature;BME280_humidity;BME280_pressure;Samples;Min_cycle;Max_cycle;Signal;HPM_P1;HPM_P2
2023/03/20 10:40:46;;;;;;;5.37;1.20;;;11.10;99.90;;;;;;4926419;29;20232;-68
2023/03/20 10:43:15;;;;;;;4.60;1.20;;;11.40;99.90;;;;;;4916812;29;20227;-68
2023/03/20 10:45:42;;;;;;;6.13;1.30;;;11.80;99.90;;;;;;4901392;29;20233;-69
2023/03/20 10:48:13;;;;;;;4.50;2.00;;;11.80;99.90;;;;;;4901301;29;20217;-69
2023/03/20 10:50:40;;;;;;;4.27;1.07;;;11.90;99.90;;;;;;4901386;29;20674;-68
2023/03/20 10:53:07;;;;;;;6.60;1.00;;;11.90;99.90;;;;;;4901153;29;20228;-68
2023/03/20 10:55:34;;;;;;;2.20;0.80;;;11.80;99.90;;;;;;4904197;29;20227;-68
2023/03/20 10:58:02;;;;;;;7.03;2.00;;;11.70;99.90;;;;;;4932323;29;20248;-68
2023/03/20 11:00:28;;;;;;;5.13;1.03;;;12.10;99.90;;;;;;4931995;29;20509;-69
2023/03/20 11:02:55;;;;;;;5.27;1.40;;;12.20;99.90;;;;;;4931710;29;20237;-69
2023/03/20 11:05:23;;;;;;;6.13;1.00;;;12.40;99.90;;;;;;4931792;29;20772;-70
2023/03/20 11:07:50;;;;;;;6.27;1.50;;;12.30;99.90;;;;;;4931876;29;20222;-69
2023/03/20 11:10:17;;;;;;;3.03;1.07;;;12.30;99.90;;;;;;4931958;29;20601;-69
2023/03/20 11:12:44;;;;;;;7.40;1.27;;;12.30;99.90;;;;;;4931634;29;20220;-69
2023/03/20 11:15:21;;;;;;;2.50;0.80;;;12.30;99.90;;;;;;4931633;29;20210;-69
2023/03/20 11:17:55;;;;;;;2.43;1.00;;;12.50;99.90;;;;;;4931721;29;20295;-69
2023/03/20 11:20:22;;;;;;;4.33;0.93;;;12.80;99.90;;;;;;4931430;29;20224;-70
2023/03/20 11:22:49;;;;;;;5.73;1.00;;;12.90;99.90;;;;;;4931368;29;20255;-69
2023/03/20 11:25:25;;;;;;;6.17;1.40;;;12.80;99.90;;;;;;4930533;29;20257;-69
2023/03/20 11:27:52;;;;;;;2.90;1.10;;;12.60;99.90;;;;;;4931828;29;20206;-69
2023/03/20 11:30:18;;;;;;;3.97;1.20;;;12.40;99.90;;;;;;4931330;29;20273;-69
2023/03/20 11:32:46;;;;;;;4.43;1.00;;;12.40;99.90;;;;;;4931514;29;20736;-69
2023/03/20 11:35:18;;;;;;;7.37;1.23;;;12.40;99.90;;;;;;4931001;29;20206;-69
2023/03/20 11:37:45;;;;;;;3.37;1.03;;;12.40;99.90;;;;;;4931813;29;20209;-70
2023/03/20 11:40:21;;;;;;;5.30;1.10;;;12.40;99.90;;;;;;4950129;29;20227;-69
2023/03/20 11:42:56;;;;;;;2.10;0.90;;;12.50;99.90;;;;;;4935310;29;20243;-70
2023/03/20 11:45:24;;;;;;;6.30;2.30;;;12.60;99.90;;;;;;4935619;29;20236;-70
2023/03/20 11:47:53;;;;;;;3.03;1.10;;;12.80;99.90;;;;;;4935168;29;20209;-69
2023/03/20 11:50:31;;;;;;;5.27;1.10;;;12.90;99.90;;;;;;4935497;29;20205;-69
2023/03/20 11:52:59;;;;;;;2.23;1.10;;;12.80;99.90;;;;;;4935331;29;20224;-69
2023/03/20 11:55:30;;;;;;;5.17;0.93;;;12.50;99.90;;;;;;4934963;29;20232;-69
2023/03/20 11:57:59;;;;;;;2.60;1.00;;;12.80;99.90;;;;;;4933898;29;20204;-70
2023/03/20 12:00:30;;;;;;;1.93;1.03;;;12.90;99.90;;;;;;4923579;29;20205;-78
2023/03/20 12:02:56;;;;;;;2.20;0.97;;;13.00;99.90;;;;;;4933734;29;20240;-76
2023/03/20 12:05:35;;;;;;;5.23;1.20;;;12.80;99.90;;;;;;4934363;29;20217;-69
2023/03/20 12:08:06;;;;;;;5.03;1.00;;;12.60;99.90;;;;;;4934090;29;20794;-72
2023/03/20 12:10:39;;;;;;;4.30;1.13;;;12.30;99.90;;;;;;4933784;29;20604;-73
2023/03/20 12:13:12;;;;;;;5.47;1.27;;;12.30;99.90;;;;;;4934197;29;20212;-73
2023/03/20 12:15:43;;;;;;;3.70;0.70;;;12.50;99.90;;;;;;4933801;29;20236;-71
2023/03/20 12:18:16;;;;;;;4.53;1.10;;;12.80;99.90;;;;;;4934292;29;20256;-70
2023/03/20 12:20:50;;;;;;;5.40;1.23;;;13.40;99.90;;;;;;4933207;29;20247;-71
2023/03/20 12:23:31;;;;;;;3.07;0.83;;;13.70;99.90;;;;;;4933775;29;20753;-73
2023/03/20 12:26:03;;;;;;;2.80;0.80;;;13.90;99.90;;;;;;4934261;29;20315;-70
2023/03/20 12:28:36;;;;;;;6.20;1.10;;;14.00;99.90;;;;;;4933178;29;20295;-69
2023/03/20 12:31:15;;;;;;;7.17;1.10;;;14.00;99.90;;;;;;4933901;29;20694;-71
2023/03/20 12:33:47;;;;;;;7.80;1.50;;;13.90;99.90;;;;;;4934010;29;20212;-68
2023/03/20 12:36:17;;;;;;;3.23;1.27;;;13.80;99.90;;;;;;4934423;29;20264;-69
2023/03/20 12:38:44;;;;;;;4.97;1.07;;;13.70;99.90;;;;;;4937828;29;20213;-75
2023/03/20 12:41:15;;;;;;;2.37;1.33;;;13.70;99.90;;;;;;4939314;29;20212;-71
2023/03/20 12:44:10;;;;;;;5.23;1.10;;;13.50;99.90;;;;;;4939000;29;20367;-70
2023/03/20 12:46:43;;;;;;;2.77;1.00;;;13.30;99.90;;;;;;4938546;29;20224;-72
2023/03/20 12:49:29;;;;;;;3.40;1.10;;;13.20;99.90;;;;;;4938749;29;20260;-70
2023/03/20 12:52:05;;;;;;;4.53;1.07;;;13.30;99.90;;;;;;4938478;29;20268;-70
2023/03/20 12:55:00;;;;;;;4.03;0.97;;;13.30;99.90;;;;;;4938301;29;20236;-71
2023/03/20 12:57:37;;;;;;;3.50;1.40;;;13.50;99.90;;;;;;4938701;29;20539;-71
2023/03/20 13:00:16;;;;;;;2.97;0.93;;;13.70;99.90;;;;;;4938868;29;20212;-71
2023/03/20 13:02:55;;;;;;;3.53;0.90;;;14.00;99.90;;;;;;4938612;29;20282;-71
2023/03/20 13:05:33;;;;;;;6.07;1.17;;;13.90;99.90;;;;;;4938718;29;20366;-71
2023/03/20 13:08:16;;;;;;;2.70;1.40;;;13.80;99.90;;;;;;4938557;29;20240;-71
2023/03/20 13:10:47;;;;;;;8.53;1.53;;;13.70;99.90;;;;;;4938626;29;20295;-71
2023/03/20 13:13:24;;;;;;;7.40;1.43;;;13.60;99.90;;;;;;4938699;29;20240;-71
2023/03/20 13:16:02;;;;;;;7.63;1.50;;;13.30;99.90;;;;;;4938166;29;20268;-70
2023/03/20 13:18:40;;;;;;;5.00;1.27;;;13.00;99.90;;;;;;4938311;29;20679;-71
2023/03/20 13:21:13;;;;;;;4.27;1.27;;;13.20;99.90;;;;;;4938414;29;20683;-72
2023/03/20 13:23:47;;;;;;;4.10;1.43;;;13.00;99.90;;;;;;4937956;29;20268;-71
2023/03/20 13:26:21;;;;;;;4.67;1.57;;;13.00;99.90;;;;;;4938386;29;20322;-72
2023/03/20 13:28:58;;;;;;;4.07;1.20;;;13.10;99.90;;;;;;4938243;29;20572;-71
2023/03/20 13:31:34;;;;;;;4.73;1.17;;;13.10;99.90;;;;;;4938285;29;20212;-71
2023/03/20 13:34:12;;;;;;;4.23;1.20;;;12.90;99.90;;;;;;4938090;29;20679;-72
2023/03/20 13:36:51;;;;;;;5.63;1.60;;;13.00;99.90;;;;;;4938082;29;20267;-70
2023/03/20 13:39:22;;;;;;;4.60;1.60;;;13.20;99.90;;;;;;4937956;29;20644;-72
2023/03/20 13:41:50;;;;;;;7.97;2.00;;;13.40;99.90;;;;;;4937678;29;20276;-70
2023/03/20 13:44:22;;;;;;;2.50;1.73;;;13.70;99.90;;;;;;4937848;29;20247;-70
2023/03/20 13:46:52;;;;;;;5.50;1.90;;;13.60;99.90;;;;;;4937591;29;20990;-70
2023/03/20 13:49:29;;;;;;;5.73;1.60;;;13.80;99.90;;;;;;4937141;29;20208;-72
2023/03/20 13:52:02;;;;;;;7.23;1.60;;;13.80;99.90;;;;;;4918756;29;20216;-71
2023/03/20 13:54:47;;;;;;;5.27;1.40;;;13.90;99.90;;;;;;4928996;29;20239;-72
2023/03/20 13:57:24;;;;;;;4.70;1.27;;;13.30;99.90;;;;;;4937653;29;20307;-76
2023/03/20 14:00:05;;;;;;;3.67;1.53;;;13.30;99.90;;;;;;4937335;29;20699;-71
2023/03/20 14:02:44;;;;;;;4.20;1.10;;;13.10;99.90;;;;;;4937464;29;20715;-74
2023/03/20 14:05:14;;;;;;;5.20;1.40;;;12.90;99.90;;;;;;4937368;29;20680;-72
2023/03/20 14:07:44;;;;;;;3.10;1.20;;;12.80;99.90;;;;;;4937774;29;20208;-75
2023/03/20 14:10:36;;;;;;;3.60;1.60;;;12.80;99.90;;;;;;4937463;29;20212;-72
2023/03/20 14:13:07;;;;;;;7.13;1.50;;;12.90;99.90;;;;;;4937428;29;20612;-73
2023/03/20 14:15:38;;;;;;;4.97;1.97;;;13.00;99.90;;;;;;4937485;29;20225;-74
2023/03/20 14:18:06;;;;;;;4.00;1.30;;;12.80;99.90;;;;;;4937092;29;20612;-72
2023/03/20 14:20:36;;;;;;;1.70;1.00;;;12.80;99.90;;;;;;4937066;29;20273;-74
2023/03/20 14:23:04;;;;;;;3.57;1.53;;;12.60;99.90;;;;;;4936982;29;20248;-74
2023/03/20 14:25:37;;;;;;;4.60;1.30;;;12.50;99.90;;;;;;4936832;29;20318;-70
2023/03/20 14:28:22;;;;;;;5.80;2.00;;;12.40;99.90;;;;;;4937166;29;20245;-73
2023/03/20 14:30:51;;;;;;;6.77;1.63;;;12.50;99.90;;;;;;4936732;29;20256;-72
2023/03/20 14:33:31;;;;;;;4.93;1.50;;;12.70;99.90;;;;;;4936841;29;20211;-70
2023/03/20 14:36:20;;;;;;;4.23;1.60;;;12.60;99.90;;;;;;4937003;29;20236;-70
2023/03/20 14:38:55;;;;;;;6.47;1.57;;;12.70;99.90;;;;;;4936898;29;20217;-70
2023/03/20 14:41:29;;;;;;;6.07;1.57;;;12.90;99.90;;;;;;4936956;29;20244;-72
2023/03/20 14:44:08;;;;;;;4.60;1.57;;;12.80;99.90;;;;;;4936304;29;20272;-72
2023/03/20 14:46:49;;;;;;;4.00;1.80;;;12.90;99.90;;;;;;4936882;29;20228;-72
2023/03/20 14:49:25;;;;;;;4.00;1.70;;;12.90;99.90;;;;;;4937045;29;20251;-71
2023/03/20 14:51:54;;;;;;;4.53;1.53;;;13.00;99.90;;;;;;4936547;29;20219;-72
2023/03/20 14:54:27;;;;;;;4.87;1.80;;;13.20;99.90;;;;;;4936664;29;20236;-72
2023/03/20 14:56:55;;;;;;;7.03;1.70;;;13.20;99.90;;;;;;4936792;29;20304;-73
2023/03/20 14:59:24;;;;;;;5.50;1.93;;;13.10;99.90;;;;;;4935357;29;20738;-74
2023/03/20 15:01:58;;;;;;;5.33;1.67;;;12.90;99.90;;;;;;4936076;29;20268;-71
2023/03/20 15:04:32;;;;;;;5.87;1.60;;;12.80;99.90;;;;;;4936270;29;20624;-76
2023/03/20 15:07:02;;;;;;;2.70;1.60;;;12.80;99.90;;;;;;4936351;29;20263;-73
2023/03/20 15:09:32;;;;;;;3.70;1.57;;;12.90;99.90;;;;;;4936366;29;20675;-74
2023/03/20 15:12:03;;;;;;;7.73;1.63;;;12.80;99.90;;;;;;4936057;29;20280;-71
2023/03/20 15:14:40;;;;;;;5.87;1.43;;;12.70;99.90;;;;;;4936364;29;20224;-78
2023/03/20 15:17:17;;;;;;;5.53;1.43;;;12.80;99.90;;;;;;4936125;29;20225;-70
2023/03/20 15:19:44;;;;;;;9.10;1.80;;;12.90;99.90;;;;;;4936039;29;20213;-72
2023/03/20 15:22:16;;;;;;;5.43;2.13;;;13.10;99.90;;;;;;4936372;29;20213;-71
2023/03/20 15:24:52;;;;;;;5.87;1.67;;;13.00;99.90;;;;;;4936145;29;20236;-71
2023/03/20 15:27:19;;;;;;;8.47;2.40;;;12.90;99.90;;;;;;4936264;29;20237;-74
2023/03/20 15:29:50;;;;;;;5.23;1.90;;;12.90;99.90;;;;;;4936144;29;20244;-75
2023/03/20 15:32:19;;;;;;;6.80;1.97;;;12.90;99.90;;;;;;4936015;29;20217;-72
2023/03/20 15:34:48;;;;;;;4.50;1.57;;;12.90;99.90;;;;;;4936188;29;20553;-73
2023/03/20 15:37:17;;;;;;;4.90;1.87;;;12.90;99.90;;;;;;4936359;29;20316;-71
2023/03/20 15:39:46;;;;;;;5.27;1.80;;;12.80;99.90;;;;;;4935561;29;20267;-72
2023/03/20 15:42:15;;;;;;;2.57;1.70;;;12.80;99.90;;;;;;4936313;29;20204;-73
2023/03/20 15:44:46;;;;;;;4.83;1.93;;;12.80;99.90;;;;;;4935740;29;20268;-71
2023/03/20 15:47:19;;;;;;;5.53;1.70;;;12.60;99.90;;;;;;4935757;29;20236;-74
2023/03/20 15:49:51;;;;;;;10.77;1.90;;;12.50;99.90;;;;;;4935169;29;20209;-69
2023/03/20 15:52:26;;;;;;;4.17;1.73;;;12.40;99.90;;;;;;4935541;29;20565;-79
2023/03/20 15:54:54;;;;;;;6.20;2.80;;;12.40;99.90;;;;;;4935315;29;20212;-71
2023/03/20 15:57:25;;;;;;;6.10;2.17;;;12.40;99.90;;;;;;4935134;29;20657;-71
2023/03/20 15:59:53;;;;;;;5.17;1.80;;;12.40;99.90;;;;;;4935429;29;20696;-75
2023/03/20 16:02:20;;;;;;;6.70;1.97;;;12.40;99.90;;;;;;4935561;29;20667;-73
2023/03/20 16:04:53;;;;;;;6.23;1.90;;;12.40;99.90;;;;;;4935434;29;20315;-79
2023/03/20 16:07:23;;;;;;;7.07;1.97;;;12.50;99.90;;;;;;4935047;29;20232;-70
2023/03/20 16:09:51;;;;;;;6.67;1.80;;;12.50;99.90;;;;;;4935730;29;20251;-78
2023/03/20 16:12:19;;;;;;;4.60;1.97;;;12.40;99.90;;;;;;4935288;29;20252;-73
2023/03/20 16:14:48;;;;;;;8.67;1.93;;;12.40;99.90;;;;;;4935399;29;20212;-72
2023/03/20 16:17:17;;;;;;;4.17;1.70;;;12.30;99.90;;;;;;4935433;29;20224;-73
2023/03/20 16:19:44;;;;;;;5.07;2.30;;;12.20;99.90;;;;;;4935414;29;20300;-72
2023/03/20 16:22:22;;;;;;;5.87;1.97;;;12.30;99.90;;;;;;4935380;29;20219;-73
2023/03/20 16:24:53;;;;;;;8.17;1.80;;;12.20;99.90;;;;;;4935297;29;20586;-71
2023/03/20 16:27:25;;;;;;;5.83;2.57;;;12.20;99.90;;;;;;4935326;29;20284;-73
2023/03/20 16:29:53;;;;;;;11.10;2.03;;;12.20;99.90;;;;;;4935377;29;20231;-71
2023/03/20 16:32:31;;;;;;;6.97;2.00;;;12.40;99.90;;;;;;4935050;29;20208;-70
2023/03/20 16:35:00;;;;;;;4.80;1.90;;;12.50;99.90;;;;;;4935606;29;20213;-70
2023/03/20 16:37:30;;;;;;;4.13;1.77;;;12.50;99.90;;;;;;4935682;29;20219;-69
2023/03/20 16:40:22;;;;;;;8.37;1.90;;;12.40;99.90;;;;;;4935740;29;20221;-70
2023/03/20 16:42:53;;;;;;;6.37;2.00;;;12.40;99.90;;;;;;4934143;29;20273;-71
2023/03/20 16:45:28;;;;;;;10.50;2.10;;;12.40;99.90;;;;;;4935005;29;20236;-69
2023/03/20 16:48:22;;;;;;;5.53;2.10;;;12.40;99.90;;;;;;4935055;29;20449;-68
2023/03/20 16:50:56;;;;;;;8.93;2.03;;;12.40;99.90;;;;;;4934543;29;20226;-68
2023/03/20 16:53:29;;;;;;;5.03;1.93;;;12.30;99.90;;;;;;4934775;29;20623;-69
2023/03/20 16:55:58;;;;;;;9.53;2.10;;;12.10;99.90;;;;;;4934959;29;20315;-68
2023/03/20 16:58:29;;;;;;;6.10;1.80;;;12.10;99.90;;;;;;4934919;29;20211;-69
2023/03/20 17:01:00;;;;;;;4.60;2.07;;;12.20;99.90;;;;;;4934309;29;20287;-68
2023/03/20 17:03:29;;;;;;;4.80;2.17;;;12.30;99.90;;;;;;4934961;29;20231;-68
2023/03/20 17:05:58;;;;;;;6.37;2.10;;;12.40;99.90;;;;;;4934748;29;20700;-70
2023/03/20 17:08:34;;;;;;;6.57;2.00;;;12.40;99.90;;;;;;4935068;29;20287;-68
2023/03/20 17:11:09;;;;;;;7.53;2.00;;;12.30;99.90;;;;;;4934862;29;20248;-68
2023/03/20 17:13:36;;;;;;;5.73;1.80;;;12.40;99.90;;;;;;4935197;29;20628;-69
2023/03/20 17:16:03;;;;;;;8.60;2.17;;;12.40;99.90;;;;;;4934866;29;20280;-70
2023/03/20 17:18:30;;;;;;;4.53;1.67;;;12.40;99.90;;;;;;4934582;29;20252;-69
2023/03/20 17:20:57;;;;;;;5.60;1.70;;;12.30;99.90;;;;;;4934644;29;20209;-68
2023/03/20 17:23:23;;;;;;;5.50;2.00;;;12.20;99.90;;;;;;4936356;29;20228;-68
2023/03/20 17:25:52;;;;;;;4.17;2.00;;;12.20;99.90;;;;;;4938054;29;20296;-68
2023/03/20 17:28:22;;;;;;;9.17;2.47;;;12.30;99.90;;;;;;4937965;29;20656;-68
2023/03/20 17:30:51;;;;;;;7.00;2.03;;;12.10;99.90;;;;;;4938542;29;20612;-68
2023/03/20 17:33:19;;;;;;;6.13;1.90;;;12.00;99.90;;;;;;4938252;29;20216;-68
2023/03/20 17:35:47;;;;;;;2.40;1.50;;;12.00;99.90;;;;;;4938117;29;20807;-69
2023/03/20 17:38:20;;;;;;;9.43;1.87;;;12.00;99.90;;;;;;4938495;29;20642;-72
2023/03/20 17:40:47;;;;;;;7.57;2.10;;;11.90;99.90;;;;;;4937737;29;20248;-73
2023/03/20 17:43:16;;;;;;;9.30;2.30;;;12.00;99.90;;;;;;4937976;29;20221;-70
2023/03/20 17:45:44;;;;;;;5.63;1.40;;;11.90;99.90;;;;;;4938121;29;20366;-71
2023/03/20 17:48:19;;;;;;;6.20;2.03;;;11.90;99.90;;;;;;4938022;29;20215;-71
2023/03/20 17:50:47;;;;;;;6.77;2.47;;;12.00;99.90;;;;;;4918884;29;20212;-75
2023/03/20 17:53:19;;;;;;;5.13;1.93;;;11.90;99.90;;;;;;4918902;29;20206;-70
2023/03/20 17:55:46;;;;;;;6.37;2.00;;;12.00;99.90;;;;;;4937350;29;20229;-71
2023/03/20 17:58:20;;;;;;;5.77;1.90;;;12.00;99.90;;;;;;4938536;29;20239;-70
2023/03/20 18:00:47;;;;;;;5.17;1.93;;;11.90;99.90;;;;;;4918555;29;20216;-69
2023/03/20 18:03:16;;;;;;;6.33;2.10;;;11.80;99.90;;;;;;4918500;29;20269;-72
2023/03/20 18:05:43;;;;;;;6.60;1.70;;;11.80;99.90;;;;;;4918874;29;20782;-73
2023/03/20 18:08:15;;;;;;;6.93;2.40;;;11.90;99.90;;;;;;4918918;29;20232;-71
2023/03/20 18:10:43;;;;;;;5.63;1.90;;;11.80;99.90;;;;;;4937422;29;20209;-70
2023/03/20 18:13:10;;;;;;;8.67;2.00;;;11.80;99.90;;;;;;4937623;29;20232;-70
2023/03/20 18:15:39;;;;;;;4.37;1.90;;;11.80;99.90;;;;;;4937243;29;20802;-70
2023/03/20 18:18:07;;;;;;;5.20;2.10;;;11.80;99.90;;;;;;4937354;29;20213;-70
2023/03/20 18:20:36;;;;;;;8.03;2.37;;;11.80;99.90;;;;;;4936825;29;20220;-71
2023/03/20 18:23:05;;;;;;;8.87;1.90;;;11.70;99.90;;;;;;4937018;29;20255;-71
2023/03/20 18:25:32;;;;;;;6.67;1.80;;;11.70;99.90;;;;;;4936964;29;20323;-71
2023/03/20 18:28:01;;;;;;;6.83;2.10;;;11.70;99.90;;;;;;4937188;29;20288;-71
2023/03/20 18:30:32;;;;;;;3.93;1.70;;;11.80;99.90;;;;;;4937227;29;20205;-72
2023/03/20 18:33:01;;;;;;;7.73;2.30;;;11.80;99.90;;;;;;4937334;29;20241;-72
2023/03/20 18:35:28;;;;;;;4.30;2.00;;;11.80;99.90;;;;;;4936882;29;20787;-71
2023/03/20 18:37:55;;;;;;;3.23;1.97;;;11.80;99.90;;;;;;4937181;29;20264;-72
2023/03/20 18:40:24;;;;;;;5.77;2.00;;;11.80;99.90;;;;;;4936752;29;20244;-71
2023/03/20 18:42:52;;;;;;;3.10;1.43;;;11.80;99.90;;;;;;4936956;29;20211;-72
2023/03/20 18:45:20;;;;;;;9.03;2.33;;;11.80;99.90;;;;;;4936941;29;20243;-72
2023/03/20 18:47:47;;;;;;;6.83;1.80;;;11.70;99.90;;;;;;4937040;29;20237;-71
2023/03/20 18:50:24;;;;;;;9.03;2.03;;;11.70;99.90;;;;;;4936525;29;20240;-71
2023/03/20 18:52:51;;;;;;;3.73;1.90;;;11.60;99.90;;;;;;4936128;29;20200;-71
2023/03/20 18:55:18;;;;;;;7.57;1.73;;;11.50;99.90;;;;;;4936168;29;20264;-72
2023/03/20 18:57:45;;;;;;;6.67;2.00;;;11.50;99.90;;;;;;4936239;29;20750;-71
2023/03/20 19:00:21;;;;;;;8.33;2.40;;;11.50;99.90;;;;;;4936383;29;20284;-74
2023/03/20 19:02:49;;;;;;;10.53;2.13;;;11.50;99.90;;;;;;4936641;29;20216;-71
2023/03/20 19:05:17;;;;;;;6.60;2.43;;;11.70;99.90;;;;;;4936333;29;20236;-71
2023/03/20 19:07:46;;;;;;;9.90;2.30;;;11.60;99.90;;;;;;4936387;29;20213;-73
2023/03/20 19:10:24;;;;;;;7.93;2.20;;;11.60;99.90;;;;;;4936181;29;20565;-72
2023/03/20 19:12:51;;;;;;;4.07;2.07;;;11.60;99.90;;;;;;4935871;29;20216;-73
2023/03/20 19:15:18;;;;;;;7.07;2.37;;;11.60;99.90;;;;;;4935649;29;20703;-72
2023/03/20 19:17:45;;;;;;;5.53;2.03;;;11.60;99.90;;;;;;4935782;29;20466;-72
2023/03/20 19:20:34;;;;;;;4.83;2.20;;;11.60;99.90;;;;;;4936393;29;20208;-72
2023/03/20 19:23:04;;;;;;;7.93;2.37;;;11.60;99.90;;;;;;4936062;29;20264;-71
2023/03/20 19:25:31;;;;;;;7.23;2.27;;;11.70;99.90;;;;;;4935543;29;20696;-73
2023/03/20 19:27:58;;;;;;;5.47;2.20;;;11.70;99.90;;;;;;4935677;29;20247;-72
2023/03/20 19:30:29;;;;;;;6.93;2.17;;;11.70;99.90;;;;;;4935657;29;20208;-73
2023/03/20 19:32:56;;;;;;;4.13;2.50;;;11.70;99.90;;;;;;4935448;29;20208;-72
2023/03/20 19:35:24;;;;;;;6.03;2.10;;;11.80;99.90;;;;;;4935324;29;20304;-72
2023/03/20 19:37:51;;;;;;;4.50;2.37;;;11.80;99.90;;;;;;4935598;29;20260;-72
2023/03/20 19:40:29;;;;;;;5.17;2.60;;;11.70;99.90;;;;;;4931134;29;20221;-73
2023/03/20 19:42:56;;;;;;;3.83;2.00;;;11.60;99.90;;;;;;4935191;29;20212;-70
2023/03/20 19:45:24;;;;;;;9.10;2.70;;;11.50;99.90;;;;;;4935115;29;20241;-74
2023/03/20 19:47:51;;;;;;;11.30;4.77;;;11.50;99.90;;;;;;4935876;29;20213;-73
2023/03/20 19:50:30;;;;;;;5.73;2.40;;;11.60;99.90;;;;;;4935529;29;20204;-70
2023/03/20 19:52:58;;;;;;;8.87;2.87;;;11.60;99.90;;;;;;4936016;29;20213;-69
2023/03/20 19:55:27;;;;;;;6.67;3.13;;;11.50;99.90;;;;;;4935371;29;20239;-70
2023/03/20 19:57:55;;;;;;;9.90;2.97;;;11.50;99.90;;;;;;4935887;29;20701;-72
2023/03/20 20:00:23;;;;;;;5.93;2.70;;;11.40;99.90;;;;;;4935530;29;20209;-74
2023/03/20 20:02:50;;;;;;;6.70;2.60;;;11.40;99.90;;;;;;4935474;29;20212;-69
2023/03/20 20:05:21;;;;;;;6.60;2.67;;;11.50;99.90;;;;;;4935147;29;20331;-72
2023/03/20 20:07:48;;;;;;;7.63;2.50;;;11.40;99.90;;;;;;4935384;29;20209;-72
2023/03/20 20:10:15;;;;;;;7.83;2.47;;;11.40;99.90;;;;;;4934901;29;20239;-70
2023/03/20 20:12:45;;;;;;;6.27;2.23;;;11.40;99.90;;;;;;4935625;29;20549;-71
2023/03/20 20:15:12;;;;;;;5.40;2.60;;;11.40;99.90;;;;;;4935764;29;20656;-72
2023/03/20 20:17:39;;;;;;;7.10;2.13;;;11.40;99.90;;;;;;4935482;29;20292;-71
2023/03/20 20:20:08;;;;;;;6.83;1.93;;;11.50;99.90;;;;;;4935695;29;20209;-69
2023/03/20 20:22:35;;;;;;;8.90;2.07;;;11.50;99.90;;;;;;4935496;29;20228;-73
2023/03/20 20:25:03;;;;;;;5.53;1.87;;;11.30;99.90;;;;;;4935377;29;20315;-71
2023/03/20 20:27:30;;;;;;;5.13;2.03;;;11.30;99.90;;;;;;4935708;29;20564;-70
2023/03/20 20:29:59;;;;;;;3.90;1.77;;;11.10;99.90;;;;;;4935532;29;20211;-70
2023/03/20 20:32:28;;;;;;;5.27;1.80;;;11.10;99.90;;;;;;4929026;29;20280;-70
2023/03/20 20:34:56;;;;;;;6.10;2.07;;;11.10;99.90;;;;;;4924177;29;20209;-71
2023/03/20 20:37:23;;;;;;;6.10;2.03;;;11.10;99.90;;;;;;4923013;29;20198;-71
2023/03/20 20:39:50;;;;;;;4.40;1.60;;;11.10;99.90;;;;;;4925065;29;20272;-74
2023/03/20 20:42:17;;;;;;;3.17;1.53;;;11.10;99.90;;;;;;4924891;29;20217;-72
2023/03/20 20:44:44;;;;;;;4.00;2.27;;;11.10;99.90;;;;;;4931724;29;20715;-72
2023/03/20 20:47:13;;;;;;;5.63;2.30;;;11.10;99.90;;;;;;4924132;29;20229;-69
2023/03/20 20:49:40;;;;;;;7.07;2.00;;;11.20;99.90;;;;;;4928984;29;20626;-75
2023/03/20 20:52:07;;;;;;;5.00;1.93;;;11.20;99.90;;;;;;4924673;29;20245;-72
2023/03/20 20:54:35;;;;;;;3.53;1.73;;;11.30;99.90;;;;;;4929521;29;20209;-70
2023/03/20 20:57:02;;;;;;;6.00;1.70;;;11.20;99.90;;;;;;4924313;29;20232;-71
2023/03/20 20:59:29;;;;;;;6.23;2.00;;;11.20;99.90;;;;;;4931959;29;20206;-72
2023/03/20 21:01:56;;;;;;;2.03;1.50;;;11.20;99.90;;;;;;4934392;29;20216;-69
2023/03/20 21:04:25;;;;;;;3.47;1.70;;;11.10;99.90;;;;;;4931981;29;20391;-69
2023/03/20 21:06:51;;;;;;;4.70;1.93;;;11.10;99.90;;;;;;4937693;29;20316;-69
2023/03/20 21:09:18;;;;;;;5.10;1.87;;;11.10;99.90;;;;;;4929432;29;20234;-70
2023/03/20 21:11:45;;;;;;;5.10;2.00;;;11.20;99.90;;;;;;4933364;29;20209;-69
2023/03/20 21:14:13;;;;;;;6.30;1.70;;;11.10;99.90;;;;;;4925850;29;20245;-70
2023/03/20 21:16:40;;;;;;;5.00;1.83;;;11.10;99.90;;;;;;4934108;29;20264;-70
2023/03/20 21:19:07;;;;;;;7.30;1.73;;;11.10;99.90;;;;;;4932137;29;20295;-70
2023/03/20 21:21:38;;;;;;;6.23;2.10;;;11.10;99.90;;;;;;4937637;29;20296;-69
2023/03/20 21:24:05;;;;;;;4.97;1.60;;;11.00;99.90;;;;;;4934497;29;20240;-70
2023/03/20 21:26:32;;;;;;;3.93;2.10;;;11.10;99.90;;;;;;4937137;29;20241;-71
2023/03/20 21:28:59;;;;;;;4.83;2.37;;;11.10;99.90;;;;;;4927909;29;20300;-72
2023/03/20 21:31:27;;;;;;;5.47;1.83;;;11.20;99.90;;;;;;4934011;29;20205;-72
2023/03/20 21:33:54;;;;;;;7.27;1.80;;;11.20;99.90;;;;;;4928117;29;20218;-76
2023/03/20 21:36:21;;;;;;;2.83;1.70;;;11.20;99.90;;;;;;4935413;29;20251;-69
2023/03/20 21:38:49;;;;;;;7.13;1.87;;;11.10;99.90;;;;;;4922329;29;20305;-71
2023/03/20 21:41:17;;;;;;;3.47;1.80;;;11.20;99.90;;;;;;4934933;29;20299;-75
2023/03/20 21:43:49;;;;;;;3.67;1.87;;;11.10;99.90;;;;;;4940570;29;20675;-72
2023/03/20 21:46:17;;;;;;;5.87;2.17;;;11.10;99.90;;;;;;4933496;29;20296;-70
2023/03/20 21:48:43;;;;;;;7.63;1.97;;;11.00;99.90;;;;;;4930698;29;20205;-72
2023/03/20 21:51:10;;;;;;;5.23;2.07;;;11.00;99.90;;;;;;4927128;29;20209;-69
2023/03/20 21:53:37;;;;;;;5.83;1.70;;;11.10;99.90;;;;;;4930739;29;20663;-71
2023/03/20 21:56:06;;;;;;;5.77;1.80;;;11.00;99.90;;;;;;4931572;29;20277;-71
2023/03/20 21:58:33;;;;;;;4.90;1.80;;;11.00;99.90;;;;;;4932794;29;20217;-74
2023/03/20 22:01:00;;;;;;;4.77;2.00;;;11.00;99.90;;;;;;4929383;29;20220;-74
2023/03/20 22:03:27;;;;;;;4.97;2.40;;;11.10;99.90;;;;;;4931416;29;20209;-71
2023/03/20 22:05:54;;;;;;;4.00;1.93;;;11.10;99.90;;;;;;4929227;29;20251;-73
2023/03/20 22:08:21;;;;;;;3.40;1.80;;;11.00;99.90;;;;;;4930688;29;20236;-74
2023/03/20 22:10:49;;;;;;;7.37;2.00;;;11.10;99.90;;;;;;4926791;29;20673;-72
2023/03/20 22:13:18;;;;;;;3.43;2.10;;;11.10;99.90;;;;;;4932254;29;20268;-73
2023/03/20 22:15:45;;;;;;;3.70;1.80;;;11.10;99.90;;;;;;4937499;29;20228;-72
2023/03/20 22:18:11;;;;;;;4.30;2.20;;;11.20;99.90;;;;;;4937003;29;20209;-71
2023/03/20 22:20:38;;;;;;;6.17;1.80;;;11.20;99.90;;;;;;4937441;29;20211;-72
2023/03/20 22:23:05;;;;;;;3.83;1.90;;;11.20;99.90;;;;;;4937686;29;20235;-77
2023/03/20 22:25:32;;;;;;;6.77;2.30;;;11.30;99.90;;;;;;4937267;29;20237;-73
2023/03/20 22:27:59;;;;;;;4.60;1.53;;;11.30;99.90;;;;;;4937211;29;20205;-73
2023/03/20 22:30:27;;;;;;;3.80;1.80;;;11.30;99.90;;;;;;4937069;29;20723;-71
2023/03/20 22:32:54;;;;;;;8.30;2.27;;;11.40;99.90;;;;;;4936645;29;20215;-75
2023/03/20 22:35:21;;;;;;;5.27;1.90;;;11.50;99.90;;;;;;4937234;29;20233;-73
2023/03/20 22:37:48;;;;;;;6.90;2.20;;;11.60;99.90;;;;;;4937095;29;20209;-71
2023/03/20 22:40:15;;;;;;;6.50;2.00;;;11.60;99.90;;;;;;4936812;29;20672;-73
2023/03/20 22:42:43;;;;;;;4.90;1.60;;;11.60;99.90;;;;;;4949137;23;20275;-74
2023/03/20 22:45:11;;;;;;;4.67;1.87;;;11.60;99.90;;;;;;4936645;29;20700;-76
2023/03/20 22:47:39;;;;;;;5.17;1.73;;;11.40;99.90;;;;;;4936496;29;20574;-74
2023/03/20 22:50:06;;;;;;;4.83;2.13;;;11.40;99.90;;;;;;4937116;29;20205;-73
2023/03/20 22:52:33;;;;;;;2.80;1.40;;;11.40;99.90;;;;;;4936786;29;20215;-74
2023/03/20 22:55:00;;;;;;;3.17;1.73;;;11.60;99.90;;;;;;4936378;29;20212;-73
2023/03/20 22:57:27;;;;;;;5.40;1.70;;;11.70;99.90;;;;;;4936473;29;20672;-77
